Time;durP1;ratioP1;P1;durP2;ratioP2;P2;SDS_P1;SDS_P2;PMS_P1;PMS_P2;Temp;Humidity;BMP_temperature;BMP_pressure;BME280_temperature;BME280_humidity;BME280_pressure;Samples;Min_cycle;Max_cycle;Signal;HPM_P1;HPM_P2
2023/09/15 00:02:24;;;;;;;15.52;8.40;;;;;;;21.78;75.45;100749.34;4971813;28;20050;-76
2023/09/15 00:04:50;;;;;;;17.08;8.60;;;;;;;21.92;75.51;100773.16;4990679;28;20121;-77
2023/09/15 00:07:17;;;;;;;22.67;9.15;;;;;;;21.94;75.78;100785.59;4990938;28;20087;-77
2023/09/15 00:09:43;;;;;;;18.92;9.05;;;;;;;21.94;75.72;100784.75;4956402;28;20108;-76
2023/09/15 00:12:09;;;;;;;30.77;9.30;;;;;;;21.93;75.90;100780.28;4990369;28;20077;-78
2023/09/15 00:14:34;;;;;;;14.80;7.68;;;;;;;21.96;75.63;100791.72;4990466;28;20687;-77
2023/09/15 00:17:02;;;;;;;19.38;8.30;;;;;;;21.97;75.79;100789.84;4990891;28;20034;-76
2023/09/15 00:19:28;;;;;;;14.75;9.70;;;;;;;21.91;75.96;100794.22;4940110;28;20045;-77
2023/09/15 00:21:53;;;;;;;20.67;8.80;;;;;;;21.92;75.92;100786.84;4990932;28;20042;-76
2023/09/15 00:24:19;;;;;;;23.83;8.20;;;;;;;21.95;75.99;100791.94;4990747;28;20038;-77
2023/09/15 00:26:44;;;;;;;14.93;8.75;;;;;;;21.96;75.96;100796.34;4939370;28;20121;-77
2023/09/15 00:29:11;;;;;;;23.10;8.27;;;;;;;21.94;76.11;100784.75;4990183;28;20033;-76
2023/09/15 00:31:37;;;;;;;20.08;7.88;;;;;;;21.94;75.73;100782.00;4990586;28;20065;-76
2023/09/15 00:34:04;;;;;;;22.40;8.27;;;;;;;21.91;76.00;100787.88;4990485;28;20076;-76
2023/09/15 00:36:29;;;;;;;19.33;7.93;;;;;;;21.90;76.02;100789.75;4990118;28;20537;-77
2023/09/15 00:38:55;;;;;;;16.98;7.30;;;;;;;21.74;76.08;100761.75;4990354;28;20030;-76
2023/09/15 00:41:20;;;;;;;19.60;7.88;;;;;;;21.82;76.21;100789.00;4989881;28;20088;-77
2023/09/15 00:43:45;;;;;;;19.73;8.55;;;;;;;21.66;76.39;100765.44;4990127;28;20034;-76
2023/09/15 00:46:12;;;;;;;24.00;9.35;;;;;;;21.64;76.54;100762.06;4989988;28;20066;-76
2023/09/15 00:48:39;;;;;;;23.67;7.88;;;;;;;21.76;76.85;100787.03;4989794;28;20033;-76
2023/09/15 00:51:07;;;;;;;17.00;7.60;;;;;;;21.76;76.85;100782.41;4955529;28;20042;-78
2023/09/15 00:53:33;;;;;;;21.55;8.30;;;;;;;21.75;77.24;100788.94;4990196;28;20030;-76
2023/09/15 00:56:00;;;;;;;14.52;7.85;;;;;;;21.57;77.18;100772.94;4989676;28;20033;-76
2023/09/15 00:58:25;;;;;;;24.83;8.07;;;;;;;21.65;77.54;100786.50;4990451;28;20495;-77
2023/09/15 01:00:52;;;;;;;17.77;7.85;;;;;;;21.70;77.51;100777.72;4989248;28;20037;-77
2023/09/15 01:03:21;;;;;;;16.55;8.00;;;;;;;21.68;77.60;100786.09;4990177;28;20565;-77
2023/09/15 01:05:47;;;;;;;18.75;7.63;;;;;;;21.69;77.75;100793.28;4989370;28;20050;-76
2023/09/15 01:08:12;;;;;;;19.38;7.07;;;;;;;21.67;77.85;100784.44;4990299;28;20041;-76
2023/09/15 01:10:38;;;;;;;21.70;6.82;;;;;;;21.66;77.91;100787.34;4989393;28;20398;-78
2023/09/15 01:13:04;;;;;;;23.85;7.93;;;;;;;21.59;78.05;100762.63;4989806;28;20111;-78
2023/09/15 01:15:37;;;;;;;16.10;7.60;;;;;;;21.61;78.14;100777.00;4989716;28;20111;-77
2023/09/15 01:18:02;;;;;;;;;;;;;;;21.56;78.41;100773.97;4990297;28;20053;-77
2023/09/15 01:20:37;;;;;;;27.33;7.63;;;;;;;21.49;78.82;100781.25;4989932;28;19941;-78
2023/09/15 01:23:02;;;;;;;18.23;7.65;;;;;;;21.48;79.14;100775.97;4989134;28;20292;-77
2023/09/15 01:25:55;;;;;;;25.98;8.18;;;;;;;21.46;79.39;100781.66;4989459;28;20414;-77
2023/09/15 01:28:32;;;;;;;19.10;7.18;;;;;;;21.27;79.61;100757.63;4989683;28;20023;-78
2023/09/15 01:31:00;;;;;;;9.23;6.97;;;;;;;21.43;79.93;100781.19;4989517;28;20483;-77
2023/09/15 01:33:27;;;;;;;13.32;7.65;;;;;;;21.42;80.01;100780.31;4989372;28;20482;-78
2023/09/15 01:35:52;;;;;;;12.90;7.05;;;;;;;21.43;80.22;100776.56;4988811;28;20031;-77
2023/09/15 01:38:18;;;;;;;19.02;7.80;;;;;;;21.28;80.09;100751.09;4989550;28;20088;-79
2023/09/15 01:40:43;;;;;;;11.82;6.13;;;;;;;21.28;80.23;100750.25;4989495;28;20623;-78
2023/09/15 01:43:10;;;;;;;17.77;6.63;;;;;;;21.45;80.24;100779.94;4988633;28;20396;-78
2023/09/15 01:45:35;;;;;;;15.27;6.40;;;;;;;21.42;80.33;100774.84;4988991;28;20038;-77
2023/09/15 01:48:02;;;;;;;9.07;6.60;;;;;;;21.43;80.39;100779.28;4988860;28;20144;-79
2023/09/15 01:50:29;;;;;;;13.05;8.02;;;;;;;21.33;80.58;100764.19;4989291;28;20415;-78
2023/09/15 01:52:56;;;;;;;11.15;6.38;;;;;;;21.40;80.73;100776.94;4988799;28;20800;-78
2023/09/15 01:55:22;;;;;;;11.27;6.68;;;;;;;21.40;80.72;100774.22;4989290;28;20406;-76
2023/09/15 01:57:47;;;;;;;17.50;7.38;;;;;;;21.45;80.67;100765.41;4988968;28;20046;-77
2023/09/15 02:00:13;;;;;;;18.63;6.43;;;;;;;21.45;80.68;100779.94;4988926;28;20026;-77
2023/09/15 02:02:39;;;;;;;13.90;7.60;;;;;;;21.45;80.80;100774.47;4988310;28;20022;-78
2023/09/15 02:05:05;;;;;;;14.50;7.28;;;;;;;21.33;80.71;100751.38;4988784;28;20100;-78
2023/09/15 02:07:30;;;;;;;14.07;6.57;;;;;;;21.37;80.89;100755.44;4988444;28;20487;-76
2023/09/15 02:09:56;;;;;;;9.18;6.20;;;;;;;21.48;80.95;100779.56;4989015;28;20030;-77
2023/09/15 02:12:21;;;;;;;13.10;6.75;;;;;;;21.53;80.70;100782.56;4988777;28;20042;-77
2023/09/15 02:14:46;;;;;;;13.75;6.55;;;;;;;21.54;80.61;100795.22;4987979;28;20046;-78
2023/09/15 02:17:15;;;;;;;14.10;6.43;;;;;;;21.54;80.28;100784.25;4988165;28;20037;-77
2023/09/15 02:19:41;;;;;;;12.10;6.20;;;;;;;21.41;80.42;100773.16;4988730;28;20031;-78
2023/09/15 02:22:07;;;;;;;24.35;6.75;;;;;;;21.59;80.39;100791.88;4988447;28;20027;-79
2023/09/15 02:24:33;;;;;;;17.33;7.75;;;;;;;21.61;80.53;100787.94;4988284;28;20053;-75
2023/09/15 02:26:59;;;;;;;13.20;6.38;;;;;;;21.63;80.22;100785.84;4988774;28;20085;-78
2023/09/15 02:29:25;;;;;;;12.40;6.63;;;;;;;21.62;80.24;100775.94;4937983;28;20045;-78
2023/09/15 02:31:51;;;;;;;14.90;6.05;;;;;;;21.65;80.19;100782.91;4988486;28;20027;-79
2023/09/15 02:34:17;;;;;;;15.63;7.15;;;;;;;21.61;80.42;100766.03;4988724;28;20050;-77
2023/09/15 02:36:43;;;;;;;15.90;7.55;;;;;;;21.67;80.38;100772.63;4988677;28;20061;-76
2023/09/15 02:39:09;;;;;;;53.00;9.73;;;;;;;21.66;80.26;100782.72;4988185;28;20676;-78
2023/09/15 02:41:35;;;;;;;20.80;7.25;;;;;;;21.69;80.25;100779.59;4988321;28;20045;-76
2023/09/15 02:44:00;;;;;;;14.98;6.22;;;;;;;21.67;80.23;100784.44;4988094;28;20019;-78
2023/09/15 02:46:26;;;;;;;11.20;6.13;;;;;;;21.72;80.43;100781.09;4988566;28;20570;-77
2023/09/15 02:48:52;;;;;;;11.18;6.18;;;;;;;21.76;80.35;100776.94;4988276;28;20120;-77
2023/09/15 02:51:17;;;;;;;17.77;6.28;;;;;;;21.77;80.23;100780.53;4988392;28;20032;-78
2023/09/15 02:53:43;;;;;;;17.80;6.78;;;;;;;21.77;80.40;100773.19;4988692;28;20076;-77
2023/09/15 02:56:08;;;;;;;11.20;6.57;;;;;;;21.80;80.31;100782.88;4988565;28;20027;-77
2023/09/15 02:58:34;;;;;;;9.40;6.13;;;;;;;21.78;80.75;100782.22;4989777;28;20089;-77
2023/09/15 03:00:59;;;;;;;12.35;6.72;;;;;;;21.78;80.53;100784.94;5003462;28;20021;-75
2023/09/15 03:03:25;;;;;;;20.13;6.25;;;;;;;21.80;80.70;100780.16;5014401;28;20038;-76
2023/09/15 03:06:02;;;;;;;16.88;6.28;;;;;;;21.80;80.63;100775.53;5013352;28;20026;-77
2023/09/15 03:08:28;;;;;;;14.20;7.10;;;;;;;21.78;80.59;100780.31;5006582;28;20034;-77
2023/09/15 03:10:54;;;;;;;27.88;8.40;;;;;;;21.84;80.32;100784.16;4993179;28;20026;-76
2023/09/15 03:13:20;;;;;;;23.00;6.57;;;;;;;21.81;80.50;100781.81;4992849;28;20034;-78
2023/09/15 03:15:45;;;;;;;16.50;7.63;;;;;;;21.78;80.56;100780.31;4990580;28;20022;-77
2023/09/15 03:18:11;;;;;;;26.63;8.55;;;;;;;21.80;80.51;100783.75;4988387;28;20046;-78
2023/09/15 03:20:37;;;;;;;38.88;9.20;;;;;;;21.77;80.41;100783.28;4989035;28;20026;-81
2023/09/15 03:23:02;;;;;;;28.42;8.23;;;;;;;21.58;80.51;100769.16;4988904;28;20375;-82
2023/09/15 03:25:28;;;;;;;34.55;9.45;;;;;;;21.70;80.58;100780.47;4988092;28;20117;-81
2023/09/15 03:27:53;;;;;;;25.90;8.80;;;;;;;21.54;80.65;100773.31;4988634;28;20041;-79
2023/09/15 03:30:19;;;;;;;24.13;9.90;;;;;;;21.68;80.55;100802.53;4991995;28;20043;-86
2023/09/15 03:32:44;;;;;;;21.63;8.63;;;;;;;21.69;80.54;100806.13;4992991;28;20491;-83
2023/09/15 03:35:10;;;;;;;20.38;7.72;;;;;;;21.57;80.28;100788.50;4991915;28;20061;-83
2023/09/15 03:37:36;;;;;;;25.05;8.13;;;;;;;21.66;80.49;100807.38;4992315;28;20120;-83
2023/09/15 03:40:04;;;;;;;18.10;7.47;;;;;;;21.65;80.41;100805.66;4991922;28;20030;-83
2023/09/15 03:42:30;;;;;;;46.83;9.93;;;;;;;21.70;80.31;100816.91;4991536;28;20479;-82
2023/09/15 03:44:56;;;;;;;60.50;10.13;;;;;;;21.70;80.07;100825.13;4991139;28;20049;-84
2023/09/15 03:47:21;;;;;;;81.65;12.98;;;;;;;21.65;79.81;100822.09;4991668;28;20046;-81
2023/09/15 03:49:47;;;;;;;46.70;10.07;;;;;;;21.61;79.85;100823.53;4992031;28;20061;-81
2023/09/15 03:52:12;;;;;;;52.40;11.07;;;;;;;21.62;79.88;100821.63;4991570;28;20082;-79
2023/09/15 03:54:38;;;;;;;66.85;10.68;;;;;;;21.64;80.10;100831.34;4992283;28;20046;-80
2023/09/15 03:57:05;;;;;;;38.65;10.52;;;;;;;21.64;79.91;100831.34;4992051;28;20486;-83
2023/09/15 03:59:30;;;;;;;121.28;17.77;;;;;;;21.65;79.69;100830.28;4974305;28;20041;-81
2023/09/15 04:01:56;;;;;;;51.90;11.77;;;;;;;21.52;79.50;100808.25;4988491;28;20031;-88
2023/09/15 04:04:21;;;;;;;99.93;15.35;;;;;;;21.67;79.59;100836.44;4991104;28;20110;-83
2023/09/15 04:06:47;;;;;;;95.68;14.75;;;;;;;21.52;79.58;100813.72;4992188;28;20034;-84
2023/09/15 04:09:12;;;;;;;103.40;12.27;;;;;;;21.71;79.69;100843.22;4991508;28;20055;-79
2023/09/15 04:11:41;;;;;;;47.42;10.95;;;;;;;21.74;79.02;100850.22;4989895;28;20062;-79
2023/09/15 04:14:07;;;;;;;38.90;10.80;;;;;;;21.51;78.84;100801.06;4990635;28;20027;-80
2023/09/15 04:16:33;;;;;;;54.97;10.40;;;;;;;21.89;78.79;100847.47;4991285;28;20065;-80
2023/09/15 04:18:59;;;;;;;51.88;10.68;;;;;;;21.97;78.81;100855.56;4990840;28;20031;-84
2023/09/15 04:21:24;;;;;;;60.90;11.50;;;;;;;22.05;78.25;100858.19;4975490;28;20170;-79
2023/09/15 04:23:50;;;;;;;73.90;11.63;;;;;;;22.17;77.47;100867.59;4971713;28;20031;-83
2023/09/15 04:26:15;;;;;;;53.75;10.85;;;;;;;22.28;76.47;100847.91;4976682;28;20533;-84
2023/09/15 04:28:41;;;;;;;37.03;9.25;;;;;;;22.41;76.18;100867.25;4988496;28;20039;-92
2023/09/15 04:31:06;;;;;;;42.75;8.50;;;;;;;22.52;74.69;100850.25;4989459;28;20022;-79
2023/09/15 04:33:32;;;;;;;40.45;9.55;;;;;;;22.59;74.26;100845.69;4990647;28;20105;-78
2023/09/15 04:35:57;;;;;;;47.03;12.73;;;;;;;22.83;73.34;100868.28;4988412;28;20038;-77
2023/09/15 04:38:23;;;;;;;38.67;8.40;;;;;;;22.89;72.93;100854.63;4990827;28;20097;-79
2023/09/15 04:40:48;;;;;;;79.85;10.00;;;;;;;23.07;72.65;100865.06;4988684;28;20031;-78
2023/09/15 04:43:16;;;;;;;65.68;11.27;;;;;;;23.15;71.52;100865.78;4987875;28;20113;-79
2023/09/15 04:45:43;;;;;;;24.38;7.65;;;;;;;23.26;71.40;100865.22;4990340;28;20047;-80
2023/09/15 04:48:08;;;;;;;36.80;8.25;;;;;;;23.35;71.50;100871.41;4972797;28;20092;-78
2023/09/15 04:50:36;;;;;;;65.35;12.85;;;;;;;23.44;71.09;100872.97;4990950;28;20026;-79
2023/09/15 04:53:03;;;;;;;70.32;11.98;;;;;;;23.52;70.96;100871.94;4990028;28;20026;-80
2023/09/15 04:55:28;;;;;;;50.65;11.27;;;;;;;23.55;71.01;100861.41;4990567;28;20502;-77
2023/09/15 04:57:54;;;;;;;41.90;10.93;;;;;;;23.66;70.93;100859.97;4989913;28;20082;-80
2023/09/15 05:00:25;;;;;;;105.97;15.27;;;;;;;23.76;70.24;100871.41;4990136;28;20027;-78
2023/09/15 05:02:50;;;;;;;57.58;12.60;;;;;;;23.77;69.79;100854.75;4989598;28;20030;-78
2023/09/15 05:05:16;;;;;;;69.15;13.52;;;;;;;23.97;69.67;100878.72;4989946;28;20067;-79
2023/09/15 05:07:42;;;;;;;52.10;12.07;;;;;;;24.00;69.75;100872.81;4990555;28;20113;-79
2023/09/15 05:10:08;;;;;;;60.58;12.27;;;;;;;24.08;69.43;100875.34;4990150;28;20108;-80
2023/09/15 05:12:34;;;;;;;56.55;11.70;;;;;;;24.18;69.04;100887.69;4990107;28;20025;-79
2023/09/15 05:15:03;;;;;;;49.83;11.13;;;;;;;24.23;68.69;100876.91;4971792;28;20038;-78
2023/09/15 05:17:29;;;;;;;53.10;8.38;;;;;;;24.29;68.30;100883.47;4990103;28;20030;-79
2023/09/15 05:19:56;;;;;;;39.33;10.45;;;;;;;24.31;68.69;100890.47;4989365;28;20061;-80
2023/09/15 05:22:22;;;;;;;21.80;7.72;;;;;;;24.33;68.08;100901.28;4990292;28;20026;-78
2023/09/15 05:24:47;;;;;;;78.05;40.22;;;;;;;24.17;68.67;100872.25;4989290;28;20086;-82
2023/09/15 05:27:13;;;;;;;68.40;13.80;;;;;;;24.34;68.74;100902.97;4989886;28;20530;-80
2023/09/15 05:29:38;;;;;;;67.38;12.07;;;;;;;24.38;68.30;100901.47;4989854;28;20483;-80
2023/09/15 05:32:04;;;;;;;89.43;14.30;;;;;;;24.43;68.22;100898.97;4990163;28;20541;-79
2023/09/15 05:34:30;;;;;;;59.53;9.75;;;;;;;24.48;68.11;100904.69;4972232;28;20030;-79
2023/09/15 05:36:55;;;;;;;58.17;12.30;;;;;;;24.52;68.27;100902.38;4990451;28;20022;-80
2023/09/15 05:39:21;;;;;;;115.00;14.60;;;;;;;24.49;67.93;100906.41;4989906;28;20125;-78
2023/09/15 05:41:46;;;;;;;43.00;14.18;;;;;;;24.51;67.95;100906.16;4990269;28;20679;-80
2023/09/15 05:44:12;;;;;;;45.95;13.77;;;;;;;24.46;68.03;100916.97;4990561;28;20034;-80
2023/09/15 05:46:37;;;;;;;57.65;15.88;;;;;;;24.41;68.40;100922.22;4987072;28;20069;-80
2023/09/15 05:49:03;;;;;;;53.22;15.48;;;;;;;24.41;68.08;100924.97;4972614;28;20033;-79
2023/09/15 05:51:28;;;;;;;63.55;16.15;;;;;;;24.35;68.35;100918.41;4985852;28;20206;-79
2023/09/15 05:53:54;;;;;;;110.68;18.67;;;;;;;24.35;68.38;100904.66;4990142;28;20442;-79
2023/09/15 05:56:19;;;;;;;105.97;19.88;;;;;;;24.46;68.25;100922.44;4990103;28;20061;-78
2023/09/15 05:58:45;;;;;;;61.72;15.70;;;;;;;24.41;68.34;100920.31;4989575;28;20085;-79
2023/09/15 06:01:10;;;;;;;59.10;16.63;;;;;;;24.53;68.39;100921.41;4989649;28;20133;-80
2023/09/15 06:03:36;;;;;;;84.82;18.48;;;;;;;24.62;68.03;100922.03;4989564;28;20028;-78
2023/09/15 06:06:02;;;;;;;64.32;16.15;;;;;;;24.63;67.81;100902.59;4989378;28;20041;-79
2023/09/15 06:08:28;;;;;;;85.88;16.25;;;;;;;24.81;67.20;100933.13;4989927;28;20030;-78
2023/09/15 06:10:53;;;;;;;86.55;16.77;;;;;;;24.89;66.29;100923.81;4989411;28;20030;-79
2023/09/15 06:13:19;;;;;;;41.08;11.38;;;;;;;24.95;65.81;100933.13;4989549;28;20033;-79
2023/09/15 06:15:44;;;;;;;33.35;12.60;;;;;;;25.01;64.82;100926.78;4990516;28;20029;-79
2023/09/15 06:18:10;;;;;;;33.67;9.18;;;;;;;25.07;60.86;100931.44;4989722;28;20109;-79
2023/09/15 06:20:35;;;;;;;98.75;12.40;;;;;;;25.00;58.58;100927.84;4939230;28;20419;-80
2023/09/15 06:23:01;;;;;;;33.83;8.07;;;;;;;24.92;57.99;100907.72;4989243;28;20089;-79
2023/09/15 06:25:27;;;;;;;33.55;9.05;;;;;;;25.12;57.04;100923.38;4971775;28;20124;-79
2023/09/15 06:27:52;;;;;;;37.05;8.45;;;;;;;25.16;54.76;100927.41;4989544;28;20031;-78
2023/09/15 06:30:18;;;;;;;46.63;8.02;;;;;;;25.24;53.95;100938.22;4989423;28;20034;-79
2023/09/15 06:32:43;;;;;;;32.08;8.15;;;;;;;25.29;53.37;100930.13;4938419;28;20042;-79
2023/09/15 06:35:13;;;;;;;39.47;7.90;;;;;;;25.36;53.25;100928.25;4989461;28;20902;-79
2023/09/15 06:37:39;;;;;;;22.20;7.00;;;;;;;25.39;52.26;100933.31;4988322;28;20157;-79
2023/09/15 06:40:06;;;;;;;34.17;11.07;;;;;;;25.42;54.10;100931.00;4988735;28;20041;-80
2023/09/15 06:42:34;;;;;;;32.72;8.18;;;;;;;25.48;53.93;100940.28;4988837;28;20027;-79
2023/09/15 06:45:00;;;;;;;59.45;10.05;;;;;;;25.56;54.63;100947.53;4989050;28;20834;-80
2023/09/15 06:47:26;;;;;;;45.47;14.13;;;;;;;25.61;57.56;100950.47;4988488;28;20046;-80
2023/09/15 06:49:51;;;;;;;74.55;17.17;;;;;;;25.55;59.15;100957.72;4988559;28;20034;-78
2023/09/15 06:52:17;;;;;;;60.13;14.90;;;;;;;25.51;60.24;100953.69;4988612;28;20030;-78
2023/09/15 06:54:42;;;;;;;65.40;16.63;;;;;;;25.52;60.26;100952.63;4988681;28;20026;-79
2023/09/15 06:57:07;;;;;;;85.05;19.92;;;;;;;25.60;59.90;100946.88;4988904;28;20062;-78
2023/09/15 06:59:33;;;;;;;62.40;19.23;;;;;;;25.69;59.19;100953.84;4988787;28;20034;-79
2023/09/15 07:02:02;;;;;;;75.78;19.20;;;;;;;25.67;59.48;100931.19;4988865;28;20027;-80
2023/09/15 07:04:28;;;;;;;106.75;25.35;;;;;;;25.84;59.28;100951.69;4975331;28;20069;-80
2023/09/15 07:06:54;;;;;;;105.55;19.75;;;;;;;25.73;58.90;100924.81;4991530;28;20034;-79
2023/09/15 07:09:19;;;;;;;62.33;15.68;;;;;;;25.84;58.04;100940.66;4992192;28;20037;-79
2023/09/15 07:11:45;;;;;;;97.07;19.98;;;;;;;25.88;57.69;100952.09;4992424;28;20049;-79
2023/09/15 07:14:10;;;;;;;115.75;17.10;;;;;;;25.90;57.25;100953.56;4992094;28;20403;-78
2023/09/15 07:16:36;;;;;;;93.63;17.10;;;;;;;25.92;57.26;100953.38;4990800;28;20042;-79
2023/09/15 07:19:02;;;;;;;65.15;14.82;;;;;;;25.88;57.41;100963.13;4990376;28;20076;-78
2023/09/15 07:21:27;;;;;;;67.40;15.73;;;;;;;25.86;57.17;100957.84;4992084;28;20041;-79
2023/09/15 07:23:54;;;;;;;49.40;15.20;;;;;;;25.88;57.78;100961.22;4983231;28;20026;-78
2023/09/15 07:26:21;;;;;;;40.72;14.15;;;;;;;25.86;58.58;100966.13;4991535;28;20479;-79
2023/09/15 07:28:47;;;;;;;69.47;16.33;;;;;;;25.84;58.68;100962.72;4991850;28;20023;-77
2023/09/15 07:31:15;;;;;;;61.20;14.85;;;;;;;25.87;59.65;100966.97;4991183;28;20069;-79
2023/09/15 07:33:43;;;;;;;47.17;12.98;;;;;;;25.90;60.12;100972.88;4972882;28;20031;-79
2023/09/15 07:36:09;;;;;;;43.92;12.15;;;;;;;25.87;60.17;100973.31;4972115;28;20039;-79
2023/09/15 07:38:35;;;;;;;31.48;11.40;;;;;;;25.84;60.22;100972.91;4972525;28;20102;-79
2023/09/15 07:41:00;;;;;;;34.63;11.65;;;;;;;25.87;60.20;100989.84;4972555;28;20079;-79
2023/09/15 07:43:26;;;;;;;42.17;10.60;;;;;;;25.92;59.68;100975.44;4973092;28;20047;-78
2023/09/15 07:45:51;;;;;;;39.40;10.85;;;;;;;25.81;58.29;100956.78;4979630;28;20042;-78
2023/09/15 07:48:17;;;;;;;34.47;9.65;;;;;;;25.95;58.33;100984.13;5008874;28;20030;-79
2023/09/15 07:50:43;;;;;;;31.40;9.35;;;;;;;26.04;58.46;100983.88;5010219;28;20069;-79
2023/09/15 07:53:08;;;;;;;45.67;10.00;;;;;;;25.75;58.37;100922.66;5011890;28;20126;-80
2023/09/15 07:55:34;;;;;;;60.17;11.07;;;;;;;26.20;58.47;100977.91;4987679;28;20122;-80
2023/09/15 07:57:59;;;;;;;53.50;11.02;;;;;;;26.21;58.32;100974.06;5006067;28;20034;-80
2023/09/15 08:00:25;;;;;;;41.10;11.25;;;;;;;26.25;58.08;100969.81;5002054;28;20495;-80
2023/09/15 08:02:50;;;;;;;40.17;10.70;;;;;;;26.35;58.07;100982.09;4993638;28;20137;-80
2023/09/15 08:05:16;;;;;;;51.45;11.82;;;;;;;26.39;58.34;100972.28;4993783;28;20029;-81
2023/09/15 08:07:46;;;;;;;37.50;9.63;;;;;;;26.42;58.27;100971.03;4994553;28;20030;-80
2023/09/15 08:10:12;;;;;;;34.97;10.38;;;;;;;26.39;58.31;100965.94;4974292;28;20384;-81
2023/09/15 08:12:38;;;;;;;59.38;12.05;;;;;;;26.57;58.57;100971.59;4990857;28;20113;-81
2023/09/15 08:15:05;;;;;;;55.97;11.93;;;;;;;26.69;57.45;100963.44;4939645;28;20035;-79
2023/09/15 08:17:31;;;;;;;43.97;11.27;;;;;;;26.85;56.88;100962.91;4991285;28;20102;-80
2023/09/15 08:19:57;;;;;;;62.10;11.93;;;;;;;27.03;54.82;100961.09;4990251;28;20054;-81
2023/09/15 08:22:23;;;;;;;42.28;10.85;;;;;;;27.16;54.05;100962.06;4991055;28;20466;-80
2023/09/15 08:24:49;;;;;;;55.60;12.02;;;;;;;27.29;53.07;100959.19;4990226;28;20125;-81
2023/09/15 08:27:15;;;;;;;36.00;9.70;;;;;;;27.36;52.23;100958.06;4990659;28;20030;-81
2023/09/15 08:29:41;;;;;;;35.42;9.75;;;;;;;27.38;50.91;100939.34;4990340;28;20027;-80
2023/09/15 08:32:08;;;;;;;37.83;10.13;;;;;;;27.55;49.78;100956.22;4955671;28;20046;-80
2023/09/15 08:34:33;;;;;;;32.90;9.60;;;;;;;27.61;49.27;100954.47;4990392;28;20054;-80
2023/09/15 08:36:59;;;;;;;26.40;8.50;;;;;;;27.66;49.80;100952.69;4990099;28;20113;-80
2023/09/15 08:39:24;;;;;;;39.08;8.80;;;;;;;27.64;49.57;100951.25;4991372;28;20061;-80
2023/09/15 08:42:04;;;;;;;39.33;8.77;;;;;;;27.79;49.51;100957.25;4989716;28;20410;-80
2023/09/15 08:44:32;;;;;;;47.85;10.95;;;;;;;27.57;49.95;100940.25;4989542;28;20505;-80
2023/09/15 08:47:00;;;;;;;44.72;11.38;;;;;;;27.73;50.48;100956.25;4989467;28;20113;-79
2023/09/15 08:49:27;;;;;;;40.85;11.30;;;;;;;27.75;49.98;100945.78;4989940;28;20121;-80
2023/09/15 08:51:55;;;;;;;23.80;10.07;;;;;;;27.78;49.71;100950.88;4990106;28;20034;-80
2023/09/15 08:54:21;;;;;;;37.63;9.07;;;;;;;27.83;49.65;100941.88;4990278;28;20034;-80
2023/09/15 08:56:47;;;;;;;28.73;8.93;;;;;;;27.75;48.96;100929.22;4989908;28;20031;-80
2023/09/15 08:59:17;;;;;;;27.80;9.32;;;;;;;27.84;49.33;100949.94;4990217;28;20037;-79
2023/09/15 09:01:42;;;;;;;16.35;8.35;;;;;;;27.85;48.78;100935.06;4989912;28;20108;-80
2023/09/15 09:04:10;;;;;;;38.15;10.02;;;;;;;28.04;49.16;100952.50;4989779;28;20479;-80
2023/09/15 09:06:36;;;;;;;45.25;10.20;;;;;;;28.11;48.74;100953.25;4989782;28;20589;-80
2023/09/15 09:09:04;;;;;;;30.27;8.43;;;;;;;28.18;48.26;100944.88;4989586;28;20026;-80
2023/09/15 09:11:29;;;;;;;33.53;9.57;;;;;;;28.15;47.70;100956.41;4989551;28;20096;-79
2023/09/15 09:13:55;;;;;;;29.63;8.57;;;;;;;28.18;47.32;100961.50;4989057;28;20034;-81
2023/09/15 09:16:21;;;;;;;36.00;8.55;;;;;;;28.12;46.56;100951.34;4939133;28;20121;-81
2023/09/15 09:19:06;;;;;;;33.10;10.38;;;;;;;28.09;46.02;100955.44;4989695;28;20033;-81
2023/09/15 09:21:32;;;;;;;34.58;7.97;;;;;;;28.09;46.10;100953.50;4956649;28;20774;-79
2023/09/15 09:23:58;;;;;;;18.95;8.32;;;;;;;27.96;45.07;100950.00;4989569;28;20121;-80
2023/09/15 09:26:24;;;;;;;23.13;8.23;;;;;;;27.95;44.43;100951.94;4971767;28;20034;-81
2023/09/15 09:28:56;;;;;;;25.23;8.65;;;;;;;27.97;44.24;100949.81;4988690;28;20169;-81
2023/09/15 09:31:26;;;;;;;22.90;7.53;;;;;;;27.89;44.38;100927.97;4989435;28;20069;-80
2023/09/15 09:33:55;;;;;;;20.88;7.57;;;;;;;27.89;44.55;100927.97;4989169;28;20053;-81
2023/09/15 09:36:21;;;;;;;13.85;6.60;;;;;;;28.01;44.81;100948.25;4989195;28;20101;-79
2023/09/15 09:38:49;;;;;;;30.38;8.18;;;;;;;28.02;45.16;100941.66;4989002;28;20141;-79
2023/09/15 09:41:17;;;;;;;17.65;7.30;;;;;;;28.01;45.31;100939.13;4989478;28;20030;-81
2023/09/15 09:43:46;;;;;;;18.13;7.05;;;;;;;28.04;45.84;100939.50;4989170;28;20030;-81
2023/09/15 09:46:13;;;;;;;21.25;8.23;;;;;;;28.09;45.64;100942.44;4989240;28;20108;-80
2023/09/15 09:48:39;;;;;;;34.97;7.72;;;;;;;28.08;45.87;100940.75;4971017;28;20093;-81
2023/09/15 09:51:05;;;;;;;35.55;9.10;;;;;;;28.14;45.73;100938.13;4988810;28;20026;-81
2023/09/15 09:53:34;;;;;;;20.70;7.75;;;;;;;28.16;45.95;100928.53;4988731;28;20031;-80
2023/09/15 09:56:04;;;;;;;27.08;8.25;;;;;;;28.25;45.55;100940.13;4984370;28;20061;-79
2023/09/15 09:58:31;;;;;;;26.40;9.02;;;;;;;28.25;45.80;100945.66;4988932;28;20105;-79
2023/09/15 10:00:57;;;;;;;27.67;7.95;;;;;;;28.20;45.94;100942.72;4989093;28;20034;-79
2023/09/15 10:03:23;;;;;;;24.30;8.75;;;;;;;28.04;46.33;100936.75;4988393;28;20494;-80
2023/09/15 10:05:49;;;;;;;26.08;9.77;;;;;;;28.00;46.82;100954.03;4988879;28;20542;-81
2023/09/15 10:08:15;;;;;;;34.20;12.20;;;;;;;27.95;47.05;100935.34;4988546;28;20062;-81
2023/09/15 10:10:43;;;;;;;23.23;9.15;;;;;;;27.89;47.32;100936.25;4938392;28;20129;-80
2023/09/15 10:13:10;;;;;;;42.15;11.20;;;;;;;27.80;47.40;100937.66;4989245;28;20022;-80
2023/09/15 10:15:36;;;;;;;25.65;8.98;;;;;;;27.63;47.62;100908.09;4988889;28;20458;-80
2023/09/15 10:18:04;;;;;;;49.70;11.32;;;;;;;27.82;48.21;100935.50;4988916;28;20224;-80
2023/09/15 10:20:31;;;;;;;44.40;16.38;;;;;;;27.80;48.34;100937.66;4971456;28;20044;-81
2023/09/15 10:22:57;;;;;;;41.05;15.68;;;;;;;27.87;48.48;100941.19;4989103;28;20105;-80
2023/09/15 10:25:24;;;;;;;50.25;17.13;;;;;;;27.97;48.94;100946.19;4971537;28;20034;-81
2023/09/15 10:27:49;;;;;;;35.20;11.02;;;;;;;27.98;48.41;100945.13;4988407;28;20057;-83
2023/09/15 10:30:15;;;;;;;28.13;11.35;;;;;;;27.89;48.82;100935.41;4988626;28;20062;-85
2023/09/15 10:32:43;;;;;;;28.63;10.07;;;;;;;27.93;48.85;100948.56;4989059;28;20073;-80
2023/09/15 10:35:10;;;;;;;46.08;11.90;;;;;;;27.82;49.04;100946.56;4988450;28;20030;-79
2023/09/15 10:37:43;;;;;;;37.22;11.32;;;;;;;27.68;49.20;100942.25;4989741;28;20030;-79
2023/09/15 10:40:13;;;;;;;30.67;10.20;;;;;;;27.66;49.36;100941.63;4992781;28;20085;-82
2023/09/15 10:42:51;;;;;;;33.10;11.60;;;;;;;27.58;49.23;100933.66;4992969;28;20464;-77
2023/09/15 10:45:17;;;;;;;31.25;11.70;;;;;;;27.50;49.27;100932.03;4992431;28;20050;-79
2023/09/15 10:47:42;;;;;;;42.47;12.70;;;;;;;27.51;49.69;100938.41;4991924;28;20050;-80
2023/09/15 10:50:08;;;;;;;30.25;12.57;;;;;;;27.39;49.58;100923.63;4992214;28;20048;-79
2023/09/15 10:52:36;;;;;;;37.60;15.52;;;;;;;27.40;49.74;100937.19;4992140;28;20394;-79
2023/09/15 10:55:02;;;;;;;32.75;14.13;;;;;;;27.39;49.80;100929.13;4992298;28;20121;-78
2023/09/15 10:57:28;;;;;;;49.97;15.05;;;;;;;27.41;50.34;100933.34;4975075;28;20431;-78
2023/09/15 10:59:55;;;;;;;45.10;13.57;;;;;;;27.31;49.90;100923.88;4991405;28;20042;-79
2023/09/15 11:02:21;;;;;;;28.20;13.75;;;;;;;27.32;50.36;100929.19;4991797;28;20028;-79
2023/09/15 11:04:48;;;;;;;31.15;14.30;;;;;;;27.34;50.36;100926.19;4991663;28;20042;-79
2023/09/15 11:07:17;;;;;;;36.22;12.63;;;;;;;27.29;50.27;100923.28;4992337;28;20029;-79
2023/09/15 11:09:43;;;;;;;47.17;13.40;;;;;;;27.09;50.46;100889.47;4992276;28;20030;-78
2023/09/15 11:12:12;;;;;;;35.40;13.55;;;;;;;27.25;50.77;100922.03;4991825;28;20073;-78